sensor_id;sensor_type;location;lat;lon;timestamp;P1;durP1;ratioP1;P2;durP2;ratioP2
26540;SDS011;14206;50.202;10.948;2023-11-19T00:01:47;3.33;;;2.70;;
26540;SDS011;14206;50.202;10.948;2023-11-19T00:04:14;2.15;;;1.95;;
26540;SDS011;14206;50.202;10.948;2023-11-19T00:10:12;2.28;;;2.08;;
26540;SDS011;14206;50.202;10.948;2023-11-19T00:12:41;2.20;;;2.00;;
26540;SDS011;14206;50.202;10.948;2023-11-19T00:15:17;1.92;;;1.83;;
26540;SDS011;14206;50.202;10.948;2023-11-19T00:17:46;2.35;;;1.95;;
26540;SDS011;14206;50.202;10.948;2023-11-19T00:20:16;2.25;;;1.90;;
26540;SDS011;14206;50.202;10.948;2023-11-19T00:22:45;2.20;;;2.00;;
26540;SDS011;14206;50.202;10.948;2023-11-19T00:25:16;1.70;;;1.60;;
26540;SDS011;14206;50.202;10.948;2023-11-19T00:27:44;1.90;;;1.70;;
26540;SDS011;14206;50.202;10.948;2023-11-19T00:30:11;1.92;;;1.70;;
26540;SDS011;14206;50.202;10.948;2023-11-19T00:32:40;1.95;;;1.80;;
26540;SDS011;14206;50.202;10.948;2023-11-19T00:35:07;1.85;;;1.75;;
26540;SDS011;14206;50.202;10.948;2023-11-19T00:37:36;2.22;;;2.05;;
26540;SDS011;14206;50.202;10.948;2023-11-19T00:40:03;2.22;;;2.03;;
26540;SDS011;14206;50.202;10.948;2023-11-19T00:42:32;3.10;;;2.20;;
26540;SDS011;14206;50.202;10.948;2023-11-19T00:44:59;2.30;;;2.10;;
26540;SDS011;14206;50.202;10.948;2023-11-19T00:47:27;2.42;;;2.22;;
26540;SDS011;14206;50.202;10.948;2023-11-19T00:49:54;2.58;;;2.38;;
26540;SDS011;14206;50.202;10.948;2023-11-19T00:52:22;2.50;;;2.30;;
26540;SDS011;14206;50.202;10.948;2023-11-19T00:54:49;2.40;;;2.20;;
26540;SDS011;14206;50.202;10.948;2023-11-19T00:57:16;2.50;;;2.30;;
26540;SDS011;14206;50.202;10.948;2023-11-19T00:59:43;2.40;;;2.20;;
26540;SDS011;14206;50.202;10.948;2023-11-19T01:02:10;2.95;;;2.60;;
26540;SDS011;14206;50.202;10.948;2023-11-19T01:04:37;2.80;;;2.60;;
26540;SDS011;14206;50.202;10.948;2023-11-19T01:07:05;3.10;;;2.80;;
26540;SDS011;14206;50.202;10.948;2023-11-19T01:09:41;2.90;;;2.60;;
26540;SDS011;14206;50.202;10.948;2023-11-19T01:12:08;2.40;;;2.20;;
26540;SDS011;14206;50.202;10.948;2023-11-19T01:14:37;2.28;;;2.08;;
26540;SDS011;14206;50.202;10.948;2023-11-19T01:17:04;2.90;;;2.60;;
26540;SDS011;14206;50.202;10.948;2023-11-19T01:19:32;2.70;;;2.50;;
26540;SDS011;14206;50.202;10.948;2023-11-19T01:21:59;2.50;;;2.30;;
26540;SDS011;14206;50.202;10.948;2023-11-19T01:24:26;3.00;;;2.70;;
26540;SDS011;14206;50.202;10.948;2023-11-19T01:26:55;2.55;;;2.35;;
26540;SDS011;14206;50.202;10.948;2023-11-19T01:29:24;2.38;;;2.17;;
26540;SDS011;14206;50.202;10.948;2023-11-19T01:31:50;3.05;;;2.30;;
26540;SDS011;14206;50.202;10.948;2023-11-19T01:34:18;2.50;;;2.30;;
26540;SDS011;14206;50.202;10.948;2023-11-19T01:36:46;2.80;;;2.60;;
26540;SDS011;14206;50.202;10.948;2023-11-19T01:39:15;2.80;;;2.60;;
26540;SDS011;14206;50.202;10.948;2023-11-19T01:41:42;2.30;;;2.10;;
26540;SDS011;14206;50.202;10.948;2023-11-19T01:44:09;2.88;;;2.60;;
26540;SDS011;14206;50.202;10.948;2023-11-19T01:46:40;2.45;;;2.25;;
26540;SDS011;14206;50.202;10.948;2023-11-19T01:49:08;2.72;;;2.20;;
26540;SDS011;14206;50.202;10.948;2023-11-19T01:51:35;4.00;;;2.67;;
26540;SDS011;14206;50.202;10.948;2023-11-19T01:54:03;2.28;;;2.08;;
26540;SDS011;14206;50.202;10.948;2023-11-19T01:56:30;2.40;;;2.20;;
26540;SDS011;14206;50.202;10.948;2023-11-19T01:58:58;2.47;;;2.28;;
26540;SDS011;14206;50.202;10.948;2023-11-19T02:01:25;2.40;;;2.20;;
26540;SDS011;14206;50.202;10.948;2023-11-19T02:03:53;2.25;;;2.05;;
26540;SDS011;14206;50.202;10.948;2023-11-19T02:06:20;2.03;;;1.88;;
26540;SDS011;14206;50.202;10.948;2023-11-19T02:08:47;2.13;;;1.92;;
26540;SDS011;14206;50.202;10.948;2023-11-19T02:11:15;1.83;;;1.73;;
26540;SDS011;14206;50.202;10.948;2023-11-19T02:13:42;1.60;;;1.50;;
26540;SDS011;14206;50.202;10.948;2023-11-19T02:16:10;1.90;;;1.80;;
26540;SDS011;14206;50.202;10.948;2023-11-19T02:18:38;1.67;;;1.58;;
26540;SDS011;14206;50.202;10.948;2023-11-19T02:21:05;2.63;;;1.90;;
26540;SDS011;14206;50.202;10.948;2023-11-19T02:23:36;1.70;;;1.60;;
26540;SDS011;14206;50.202;10.948;2023-11-19T02:28:55;1.50;;;1.40;;
26540;SDS011;14206;50.202;10.948;2023-11-19T02:31:22;1.50;;;1.40;;
26540;SDS011;14206;50.202;10.948;2023-11-19T02:33:49;2.33;;;1.73;;
26540;SDS011;14206;50.202;10.948;2023-11-19T02:36:16;1.55;;;1.45;;
26540;SDS011;14206;50.202;10.948;2023-11-19T02:38:43;1.80;;;1.70;;
26540;SDS011;14206;50.202;10.948;2023-11-19T02:41:10;1.52;;;1.42;;
26540;SDS011;14206;50.202;10.948;2023-11-19T02:43:37;1.60;;;1.50;;
26540;SDS011;14206;50.202;10.948;2023-11-19T02:46:05;1.50;;;1.40;;
26540;SDS011;14206;50.202;10.948;2023-11-19T02:48:36;1.63;;;1.52;;
26540;SDS011;14206;50.202;10.948;2023-11-19T02:51:05;1.45;;;1.35;;
26540;SDS011;14206;50.202;10.948;2023-11-19T02:53:36;1.38;;;1.27;;
26540;SDS011;14206;50.202;10.948;2023-11-19T02:56:05;1.50;;;1.40;;
26540;SDS011;14206;50.202;10.948;2023-11-19T02:58:38;1.60;;;1.50;;
26540;SDS011;14206;50.202;10.948;2023-11-19T03:01:05;1.55;;;1.38;;
26540;SDS011;14206;50.202;10.948;2023-11-19T03:03:50;1.30;;;1.20;;
26540;SDS011;14206;50.202;10.948;2023-11-19T03:06:23;1.30;;;1.20;;
26540;SDS011;14206;50.202;10.948;2023-11-19T03:08:51;1.00;;;1.00;;
26540;SDS011;14206;50.202;10.948;2023-11-19T03:11:18;1.60;;;1.48;;
26540;SDS011;14206;50.202;10.948;2023-11-19T03:13:45;1.00;;;1.00;;
26540;SDS011;14206;50.202;10.948;2023-11-19T03:16:13;1.10;;;1.10;;
26540;SDS011;14206;50.202;10.948;2023-11-19T03:18:40;1.10;;;1.00;;
26540;SDS011;14206;50.202;10.948;2023-11-19T03:21:07;1.20;;;1.10;;
26540;SDS011;14206;50.202;10.948;2023-11-19T03:23:36;1.27;;;1.17;;
26540;SDS011;14206;50.202;10.948;2023-11-19T03:26:10;1.40;;;1.30;;
26540;SDS011;14206;50.202;10.948;2023-11-19T03:28:37;1.25;;;1.15;;
26540;SDS011;14206;50.202;10.948;2023-11-19T03:31:04;1.33;;;1.23;;
26540;SDS011;14206;50.202;10.948;2023-11-19T03:33:35;1.00;;;1.00;;
26540;SDS011;14206;50.202;10.948;2023-11-19T03:36:02;0.98;;;0.98;;
26540;SDS011;14206;50.202;10.948;2023-11-19T03:38:29;1.40;;;1.30;;
26540;SDS011;14206;50.202;10.948;2023-11-19T03:40:55;1.58;;;1.13;;
26540;SDS011;14206;50.202;10.948;2023-11-19T03:43:22;1.50;;;1.40;;
26540;SDS011;14206;50.202;10.948;2023-11-19T03:45:49;1.80;;;1.70;;
26540;SDS011;14206;50.202;10.948;2023-11-19T03:48:16;1.63;;;1.52;;
26540;SDS011;14206;50.202;10.948;2023-11-19T03:50:43;1.67;;;1.58;;
26540;SDS011;14206;50.202;10.948;2023-11-19T03:53:11;1.45;;;1.35;;
26540;SDS011;14206;50.202;10.948;2023-11-19T03:55:38;1.73;;;1.63;;
26540;SDS011;14206;50.202;10.948;2023-11-19T03:58:05;2.50;;;2.08;;
26540;SDS011;14206;50.202;10.948;2023-11-19T04:00:32;2.70;;;2.50;;
26540;SDS011;14206;50.202;10.948;2023-11-19T04:02:59;2.70;;;2.50;;
26540;SDS011;14206;50.202;10.948;2023-11-19T04:05:26;2.85;;;2.65;;
26540;SDS011;14206;50.202;10.948;2023-11-19T04:07:53;2.70;;;2.50;;
26540;SDS011;14206;50.202;10.948;2023-11-19T04:10:20;4.00;;;2.90;;
26540;SDS011;14206;50.202;10.948;2023-11-19T04:12:49;2.90;;;2.70;;
26540;SDS011;14206;50.202;10.948;2023-11-19T04:15:16;2.85;;;2.55;;
26540;SDS011;14206;50.202;10.948;2023-11-19T04:17:43;2.65;;;2.45;;
26540;SDS011;14206;50.202;10.948;2023-11-19T04:20:10;2.50;;;2.30;;
26540;SDS011;14206;50.202;10.948;2023-11-19T04:22:40;2.80;;;2.60;;
26540;SDS011;14206;50.202;10.948;2023-11-19T04:25:07;2.97;;;2.67;;
26540;SDS011;14206;50.202;10.948;2023-11-19T04:27:35;2.90;;;2.70;;
26540;SDS011;14206;50.202;10.948;2023-11-19T04:30:03;2.90;;;2.70;;
26540;SDS011;14206;50.202;10.948;2023-11-19T04:32:30;2.70;;;2.50;;
26540;SDS011;14206;50.202;10.948;2023-11-19T04:34:57;3.38;;;3.08;;
26540;SDS011;14206;50.202;10.948;2023-11-19T04:37:24;3.20;;;2.90;;
26540;SDS011;14206;50.202;10.948;2023-11-19T04:39:52;4.15;;;3.50;;
26540;SDS011;14206;50.202;10.948;2023-11-19T04:42:19;3.40;;;3.10;;
26540;SDS011;14206;50.202;10.948;2023-11-19T04:44:48;3.22;;;2.92;;
26540;SDS011;14206;50.202;10.948;2023-11-19T04:47:15;2.85;;;2.65;;
26540;SDS011;14206;50.202;10.948;2023-11-19T04:49:42;3.42;;;3.13;;
26540;SDS011;14206;50.202;10.948;2023-11-19T04:52:09;4.00;;;3.60;;
26540;SDS011;14206;50.202;10.948;2023-11-19T04:54:41;3.60;;;3.30;;
26540;SDS011;14206;50.202;10.948;2023-11-19T04:57:09;3.67;;;3.38;;
26540;SDS011;14206;50.202;10.948;2023-11-19T04:59:39;3.60;;;3.30;;
26540;SDS011;14206;50.202;10.948;2023-11-19T05:02:08;3.80;;;3.50;;
26540;SDS011;14206;50.202;10.948;2023-11-19T05:04:35;3.28;;;2.97;;
26540;SDS011;14206;50.202;10.948;2023-11-19T05:07:04;3.33;;;3.05;;
26540;SDS011;14206;50.202;10.948;2023-11-19T05:09:31;3.83;;;3.53;;
26540;SDS011;14206;50.202;10.948;2023-11-19T05:11:58;4.07;;;3.67;;
26540;SDS011;14206;50.202;10.948;2023-11-19T05:14:24;3.63;;;3.33;;
26540;SDS011;14206;50.202;10.948;2023-11-19T05:16:51;3.50;;;3.20;;
26540;SDS011;14206;50.202;10.948;2023-11-19T05:19:18;2.90;;;2.70;;
26540;SDS011;14206;50.202;10.948;2023-11-19T05:21:45;3.20;;;2.90;;
26540;SDS011;14206;50.202;10.948;2023-11-19T05:24:12;2.90;;;2.70;;
26540;SDS011;14206;50.202;10.948;2023-11-19T05:26:39;3.58;;;3.28;;
26540;SDS011;14206;50.202;10.948;2023-11-19T05:29:06;4.18;;;3.20;;
26540;SDS011;14206;50.202;10.948;2023-11-19T05:31:33;3.22;;;2.92;;
26540;SDS011;14206;50.202;10.948;2023-11-19T05:34:03;3.45;;;3.15;;
26540;SDS011;14206;50.202;10.948;2023-11-19T05:36:32;3.30;;;3.00;;
26540;SDS011;14206;50.202;10.948;2023-11-19T05:38:59;3.72;;;3.33;;
26540;SDS011;14206;50.202;10.948;2023-11-19T05:41:26;3.65;;;3.35;;
26540;SDS011;14206;50.202;10.948;2023-11-19T05:43:53;3.83;;;3.53;;
26540;SDS011;14206;50.202;10.948;2023-11-19T05:46:20;3.90;;;3.60;;
26540;SDS011;14206;50.202;10.948;2023-11-19T05:48:48;3.38;;;3.08;;
26540;SDS011;14206;50.202;10.948;2023-11-19T05:51:22;3.75;;;3.45;;
26540;SDS011;14206;50.202;10.948;2023-11-19T05:53:57;3.75;;;3.45;;
26540;SDS011;14206;50.202;10.948;2023-11-19T05:56:24;3.78;;;3.47;;
26540;SDS011;14206;50.202;10.948;2023-11-19T05:58:51;3.88;;;3.55;;
26540;SDS011;14206;50.202;10.948;2023-11-19T06:01:18;4.03;;;3.65;;
26540;SDS011;14206;50.202;10.948;2023-11-19T06:03:45;5.35;;;3.50;;
26540;SDS011;14206;50.202;10.948;2023-11-19T06:06:16;4.10;;;3.70;;
26540;SDS011;14206;50.202;10.948;2023-11-19T06:08:43;4.45;;;3.55;;
26540;SDS011;14206;50.202;10.948;2023-11-19T06:11:10;4.57;;;4.18;;
26540;SDS011;14206;50.202;10.948;2023-11-19T06:13:44;3.80;;;3.50;;
26540;SDS011;14206;50.202;10.948;2023-11-19T06:16:11;3.88;;;3.58;;
26540;SDS011;14206;50.202;10.948;2023-11-19T06:18:38;3.85;;;3.55;;
26540;SDS011;14206;50.202;10.948;2023-11-19T06:21:08;3.47;;;3.17;;
26540;SDS011;14206;50.202;10.948;2023-11-19T06:23:35;3.47;;;3.17;;
26540;SDS011;14206;50.202;10.948;2023-11-19T06:26:01;2.97;;;2.67;;
26540;SDS011;14206;50.202;10.948;2023-11-19T06:28:28;3.88;;;3.50;;
26540;SDS011;14206;50.202;10.948;2023-11-19T06:30:55;4.22;;;3.83;;
26540;SDS011;14206;50.202;10.948;2023-11-19T06:33:23;4.10;;;3.70;;
26540;SDS011;14206;50.202;10.948;2023-11-19T06:35:51;4.10;;;3.70;;
26540;SDS011;14206;50.202;10.948;2023-11-19T06:38:21;4.13;;;3.72;;
26540;SDS011;14206;50.202;10.948;2023-11-19T06:40:48;3.60;;;3.30;;
26540;SDS011;14206;50.202;10.948;2023-11-19T06:43:20;3.08;;;2.78;;
26540;SDS011;14206;50.202;10.948;2023-11-19T06:45:47;2.83;;;2.60;;
26540;SDS011;14206;50.202;10.948;2023-11-19T06:48:14;2.28;;;2.08;;
26540;SDS011;14206;50.202;10.948;2023-11-19T06:50:41;2.60;;;2.40;;
26540;SDS011;14206;50.202;10.948;2023-11-19T06:53:08;2.70;;;2.50;;
26540;SDS011;14206;50.202;10.948;2023-11-19T06:55:36;3.55;;;2.45;;
26540;SDS011;14206;50.202;10.948;2023-11-19T06:58:05;2.50;;;2.30;;
26540;SDS011;14206;50.202;10.948;2023-11-19T07:00:33;2.70;;;2.50;;
26540;SDS011;14206;50.202;10.948;2023-11-19T07:03:02;2.38;;;2.17;;
26540;SDS011;14206;50.202;10.948;2023-11-19T07:05:29;2.70;;;2.50;;
26540;SDS011;14206;50.202;10.948;2023-11-19T07:07:56;2.63;;;2.42;;
26540;SDS011;14206;50.202;10.948;2023-11-19T07:10:23;3.17;;;2.88;;
26540;SDS011;14206;50.202;10.948;2023-11-19T07:12:51;3.10;;;2.80;;
26540;SDS011;14206;50.202;10.948;2023-11-19T07:15:18;3.00;;;2.80;;
26540;SDS011;14206;50.202;10.948;2023-11-19T07:17:45;2.83;;;2.63;;
26540;SDS011;14206;50.202;10.948;2023-11-19T07:20:12;3.97;;;3.28;;
26540;SDS011;14206;50.202;10.948;2023-11-19T07:22:45;3.30;;;3.00;;
26540;SDS011;14206;50.202;10.948;2023-11-19T07:25:14;3.40;;;3.00;;
26540;SDS011;14206;50.202;10.948;2023-11-19T07:27:41;2.70;;;2.50;;
26540;SDS011;14206;50.202;10.948;2023-11-19T07:30:09;3.05;;;2.80;;
26540;SDS011;14206;50.202;10.948;2023-11-19T07:32:36;3.10;;;2.80;;
26540;SDS011;14206;50.202;10.948;2023-11-19T07:35:05;3.22;;;2.92;;
26540;SDS011;14206;50.202;10.948;2023-11-19T07:37:33;3.08;;;2.80;;
26540;SDS011;14206;50.202;10.948;2023-11-19T07:40:00;3.13;;;2.83;;
26540;SDS011;14206;50.202;10.948;2023-11-19T07:42:27;2.65;;;2.45;;
26540;SDS011;14206;50.202;10.948;2023-11-19T07:44:53;3.50;;;3.17;;
26540;SDS011;14206;50.202;10.948;2023-11-19T07:47:22;3.40;;;3.10;;
26540;SDS011;14206;50.202;10.948;2023-11-19T07:49:50;2.80;;;2.58;;
26540;SDS011;14206;50.202;10.948;2023-11-19T07:52:17;3.10;;;2.83;;
26540;SDS011;14206;50.202;10.948;2023-11-19T07:54:47;2.50;;;2.30;;
26540;SDS011;14206;50.202;10.948;2023-11-19T07:57:14;2.83;;;2.55;;
26540;SDS011;14206;50.202;10.948;2023-11-19T07:59:41;2.30;;;2.10;;
26540;SDS011;14206;50.202;10.948;2023-11-19T08:02:08;2.30;;;2.10;;
26540;SDS011;14206;50.202;10.948;2023-11-19T08:04:35;1.98;;;1.88;;
26540;SDS011;14206;50.202;10.948;2023-11-19T08:07:02;2.40;;;2.20;;
26540;SDS011;14206;50.202;10.948;2023-11-19T08:09:29;2.17;;;1.98;;
26540;SDS011;14206;50.202;10.948;2023-11-19T08:11:57;2.58;;;1.70;;
26540;SDS011;14206;50.202;10.948;2023-11-19T08:14:24;1.90;;;1.80;;
26540;SDS011;14206;50.202;10.948;2023-11-19T08:16:50;2.17;;;1.98;;
26540;SDS011;14206;50.202;10.948;2023-11-19T08:19:17;2.13;;;2.00;;
26540;SDS011;14206;50.202;10.948;2023-11-19T08:21:44;2.22;;;1.77;;
26540;SDS011;14206;50.202;10.948;2023-11-19T08:24:11;2.42;;;1.77;;
26540;SDS011;14206;50.202;10.948;2023-11-19T08:26:38;1.63;;;1.45;;
26540;SDS011;14206;50.202;10.948;2023-11-19T08:29:05;1.80;;;1.70;;
26540;SDS011;14206;50.202;10.948;2023-11-19T08:31:32;2.92;;;1.80;;
26540;SDS011;14206;50.202;10.948;2023-11-19T08:33:59;1.73;;;1.50;;
26540;SDS011;14206;50.202;10.948;2023-11-19T08:36:26;2.10;;;1.90;;
26540;SDS011;14206;50.202;10.948;2023-11-19T08:38:54;1.60;;;1.50;;
26540;SDS011;14206;50.202;10.948;2023-11-19T08:41:21;1.80;;;1.70;;
26540;SDS011;14206;50.202;10.948;2023-11-19T08:43:48;1.60;;;1.50;;
26540;SDS011;14206;50.202;10.948;2023-11-19T08:46:15;1.70;;;1.60;;
26540;SDS011;14206;50.202;10.948;2023-11-19T08:48:42;1.77;;;1.30;;
26540;SDS011;14206;50.202;10.948;2023-11-19T08:51:09;1.20;;;1.10;;
26540;SDS011;14206;50.202;10.948;2023-11-19T08:53:35;1.33;;;0.98;;
26540;SDS011;14206;50.202;10.948;2023-11-19T08:56:03;1.50;;;0.90;;
26540;SDS011;14206;50.202;10.948;2023-11-19T08:58:30;1.45;;;1.00;;
26540;SDS011;14206;50.202;10.948;2023-11-19T09:00:57;1.25;;;0.90;;
26540;SDS011;14206;50.202;10.948;2023-11-19T09:03:25;1.00;;;0.80;;
26540;SDS011;14206;50.202;10.948;2023-11-19T09:05:57;1.55;;;0.90;;
26540;SDS011;14206;50.202;10.948;2023-11-19T09:08:26;1.45;;;1.00;;
26540;SDS011;14206;50.202;10.948;2023-11-19T09:10:53;0.93;;;0.93;;
26540;SDS011;14206;50.202;10.948;2023-11-19T09:13:21;1.88;;;0.98;;
26540;SDS011;14206;50.202;10.948;2023-11-19T09:15:48;1.40;;;0.82;;
26540;SDS011;14206;50.202;10.948;2023-11-19T09:18:15;1.17;;;1.08;;
26540;SDS011;14206;50.202;10.948;2023-11-19T09:20:42;1.58;;;0.90;;
26540;SDS011;14206;50.202;10.948;2023-11-19T09:23:09;1.10;;;0.90;;
26540;SDS011;14206;50.202;10.948;2023-11-19T09:25:36;1.40;;;1.00;;
26540;SDS011;14206;50.202;10.948;2023-11-19T09:28:05;2.58;;;1.95;;
26540;SDS011;14206;50.202;10.948;2023-11-19T09:30:35;1.85;;;1.50;;
26540;SDS011;14206;50.202;10.948;2023-11-19T09:33:02;1.15;;;1.00;;
26540;SDS011;14206;50.202;10.948;2023-11-19T09:35:29;1.00;;;0.93;;
26540;SDS011;14206;50.202;10.948;2023-11-19T09:37:57;1.25;;;1.00;;
26540;SDS011;14206;50.202;10.948;2023-11-19T09:40:28;1.85;;;1.33;;
26540;SDS011;14206;50.202;10.948;2023-11-19T09:42:55;1.10;;;0.90;;
26540;SDS011;14206;50.202;10.948;2023-11-19T09:45:22;1.67;;;1.00;;
26540;SDS011;14206;50.202;10.948;2023-11-19T09:47:54;1.25;;;0.90;;
26540;SDS011;14206;50.202;10.948;2023-11-19T09:50:25;2.38;;;0.90;;
26540;SDS011;14206;50.202;10.948;2023-11-19T09:52:52;1.17;;;0.80;;
26540;SDS011;14206;50.202;10.948;2023-11-19T09:55:19;1.88;;;0.70;;
26540;SDS011;14206;50.202;10.948;2023-11-19T09:57:46;1.58;;;1.00;;
26540;SDS011;14206;50.202;10.948;2023-11-19T10:00:16;0.82;;;0.80;;
26540;SDS011;14206;50.202;10.948;2023-11-19T10:02:45;1.05;;;0.80;;
26540;SDS011;14206;50.202;10.948;2023-11-19T10:05:21;2.80;;;0.93;;
26540;SDS011;14206;50.202;10.948;2023-11-19T10:07:50;1.25;;;0.80;;
26540;SDS011;14206;50.202;10.948;2023-11-19T10:10:17;1.75;;;0.93;;
26540;SDS011;14206;50.202;10.948;2023-11-19T10:12:45;1.58;;;0.90;;
26540;SDS011;14206;50.202;10.948;2023-11-19T10:15:22;1.67;;;0.80;;
26540;SDS011;14206;50.202;10.948;2023-11-19T10:17:56;0.95;;;0.77;;
26540;SDS011;14206;50.202;10.948;2023-11-19T10:20:24;1.45;;;0.90;;
26540;SDS011;14206;50.202;10.948;2023-11-19T10:22:52;0.75;;;0.70;;
26540;SDS011;14206;50.202;10.948;2023-11-19T10:25:21;1.13;;;0.77;;
26540;SDS011;14206;50.202;10.948;2023-11-19T10:27:52;1.00;;;0.88;;
26540;SDS011;14206;50.202;10.948;2023-11-19T10:30:24;1.57;;;0.80;;
26540;SDS011;14206;50.202;10.948;2023-11-19T10:33:08;2.50;;;0.90;;
26540;SDS011;14206;50.202;10.948;2023-11-19T10:35:54;1.27;;;0.70;;
26540;SDS011;14206;50.202;10.948;2023-11-19T10:38:28;1.65;;;0.90;;
26540;SDS011;14206;50.202;10.948;2023-11-19T10:40:56;2.55;;;0.93;;
26540;SDS011;14206;50.202;10.948;2023-11-19T10:43:23;1.48;;;0.80;;
26540;SDS011;14206;50.202;10.948;2023-11-19T10:45:51;2.58;;;0.73;;
26540;SDS011;14206;50.202;10.948;2023-11-19T10:48:18;4.25;;;0.80;;
26540;SDS011;14206;50.202;10.948;2023-11-19T10:50:49;2.55;;;1.00;;
26540;SDS011;14206;50.202;10.948;2023-11-19T10:53:21;3.75;;;1.00;;
26540;SDS011;14206;50.202;10.948;2023-11-19T10:55:52;2.90;;;1.10;;
26540;SDS011;14206;50.202;10.948;2023-11-19T10:58:24;1.10;;;1.00;;
26540;SDS011;14206;50.202;10.948;2023-11-19T11:00:59;3.90;;;2.58;;
26540;SDS011;14206;50.202;10.948;2023-11-19T11:03:35;4.03;;;1.83;;
26540;SDS011;14206;50.202;10.948;2023-11-19T11:06:08;2.25;;;1.90;;
26540;SDS011;14206;50.202;10.948;2023-11-19T11:08:37;2.72;;;1.67;;
26540;SDS011;14206;50.202;10.948;2023-11-19T11:11:06;2.08;;;1.08;;
26540;SDS011;14206;50.202;10.948;2023-11-19T11:13:34;2.45;;;1.20;;
26540;SDS011;14206;50.202;10.948;2023-11-19T11:16:04;2.25;;;1.20;;
26540;SDS011;14206;50.202;10.948;2023-11-19T11:18:42;2.95;;;1.05;;
26540;SDS011;14206;50.202;10.948;2023-11-19T11:21:13;3.08;;;1.13;;
26540;SDS011;14206;50.202;10.948;2023-11-19T11:32:45;3.38;;;1.20;;
26540;SDS011;14206;50.202;10.948;2023-11-19T11:38:47;3.15;;;2.00;;
26540;SDS011;14206;50.202;10.948;2023-11-19T11:41:15;1.83;;;1.08;;
26540;SDS011;14206;50.202;10.948;2023-11-19T11:43:54;1.50;;;0.93;;
26540;SDS011;14206;50.202;10.948;2023-11-19T11:49:07;5.00;;;1.42;;
26540;SDS011;14206;50.202;10.948;2023-11-19T11:57:02;1.88;;;1.08;;
26540;SDS011;14206;50.202;10.948;2023-11-19T12:02:10;2.55;;;1.20;;
26540;SDS011;14206;50.202;10.948;2023-11-19T12:04:40;2.50;;;1.00;;
26540;SDS011;14206;50.202;10.948;2023-11-19T12:07:18;4.07;;;1.60;;
26540;SDS011;14206;50.202;10.948;2023-11-19T12:09:53;2.38;;;1.10;;
26540;SDS011;14206;50.202;10.948;2023-11-19T12:12:34;3.95;;;1.20;;
26540;SDS011;14206;50.202;10.948;2023-11-19T12:15:05;4.72;;;1.48;;
26540;SDS011;14206;50.202;10.948;2023-11-19T12:17:37;3.80;;;1.40;;
26540;SDS011;14206;50.202;10.948;2023-11-19T12:20:06;2.60;;;1.10;;
26540;SDS011;14206;50.202;10.948;2023-11-19T12:22:38;4.65;;;1.25;;
26540;SDS011;14206;50.202;10.948;2023-11-19T12:25:08;2.58;;;1.00;;
26540;SDS011;14206;50.202;10.948;2023-11-19T12:27:36;2.38;;;1.05;;
26540;SDS011;14206;50.202;10.948;2023-11-19T12:30:08;3.85;;;1.30;;
26540;SDS011;14206;50.202;10.948;2023-11-19T12:32:38;3.78;;;1.00;;
26540;SDS011;14206;50.202;10.948;2023-11-19T12:35:11;7.70;;;1.50;;
26540;SDS011;14206;50.202;10.948;2023-11-19T12:37:42;4.30;;;1.20;;
26540;SDS011;14206;50.202;10.948;2023-11-19T12:40:28;4.60;;;1.30;;
26540;SDS011;14206;50.202;10.948;2023-11-19T12:45:22;5.93;;;1.30;;
26540;SDS011;14206;50.202;10.948;2023-11-19T12:48:03;3.22;;;1.42;;
26540;SDS011;14206;50.202;10.948;2023-11-19T12:53:28;3.95;;;1.10;;
26540;SDS011;14206;50.202;10.948;2023-11-19T12:55:55;4.18;;;1.40;;
26540;SDS011;14206;50.202;10.948;2023-11-19T12:58:34;3.40;;;1.27;;
26540;SDS011;14206;50.202;10.948;2023-11-19T13:01:03;4.97;;;1.25;;
26540;SDS011;14206;50.202;10.948;2023-11-19T13:03:32;4.13;;;1.60;;
26540;SDS011;14206;50.202;10.948;2023-11-19T13:06:06;2.75;;;0.95;;
26540;SDS011;14206;50.202;10.948;2023-11-19T13:08:41;3.85;;;1.60;;
26540;SDS011;14206;50.202;10.948;2023-11-19T13:11:12;2.90;;;1.08;;
26540;SDS011;14206;50.202;10.948;2023-11-19T13:16:27;4.05;;;1.30;;
26540;SDS011;14206;50.202;10.948;2023-11-19T13:18:55;4.55;;;1.45;;
26540;SDS011;14206;50.202;10.948;2023-11-19T13:21:23;7.93;;;1.65;;
26540;SDS011;14206;50.202;10.948;2023-11-19T13:23:51;3.17;;;1.10;;
26540;SDS011;14206;50.202;10.948;2023-11-19T13:26:21;5.10;;;1.50;;
26540;SDS011;14206;50.202;10.948;2023-11-19T13:28:48;5.90;;;1.08;;
26540;SDS011;14206;50.202;10.948;2023-11-19T13:31:15;4.05;;;1.17;;
26540;SDS011;14206;50.202;10.948;2023-11-19T13:33:43;4.22;;;1.33;;
26540;SDS011;14206;50.202;10.948;2023-11-19T13:36:10;4.85;;;1.25;;
26540;SDS011;14206;50.202;10.948;2023-11-19T13:38:42;4.28;;;1.40;;
26540;SDS011;14206;50.202;10.948;2023-11-19T13:41:10;4.28;;;1.60;;
26540;SDS011;14206;50.202;10.948;2023-11-19T13:43:39;4.90;;;1.42;;
26540;SDS011;14206;50.202;10.948;2023-11-19T13:46:09;4.43;;;1.23;;
26540;SDS011;14206;50.202;10.948;2023-11-19T13:48:37;4.13;;;1.42;;
26540;SDS011;14206;50.202;10.948;2023-11-19T13:51:05;3.58;;;1.20;;
26540;SDS011;14206;50.202;10.948;2023-11-19T13:53:33;2.38;;;1.10;;
26540;SDS011;14206;50.202;10.948;2023-11-19T13:56:20;5.90;;;1.42;;
26540;SDS011;14206;50.202;10.948;2023-11-19T13:58:46;3.22;;;1.17;;
26540;SDS011;14206;50.202;10.948;2023-11-19T14:01:13;2.47;;;1.20;;
26540;SDS011;14206;50.202;10.948;2023-11-19T14:03:43;7.03;;;1.58;;
26540;SDS011;14206;50.202;10.948;2023-11-19T14:06:10;4.13;;;1.30;;
26540;SDS011;14206;50.202;10.948;2023-11-19T14:08:39;5.22;;;1.42;;
26540;SDS011;14206;50.202;10.948;2023-11-19T14:11:06;3.80;;;1.40;;
26540;SDS011;14206;50.202;10.948;2023-11-19T14:13:33;4.10;;;1.55;;
26540;SDS011;14206;50.202;10.948;2023-11-19T14:16:00;3.92;;;1.20;;
26540;SDS011;14206;50.202;10.948;2023-11-19T14:18:27;4.90;;;1.20;;
26540;SDS011;14206;50.202;10.948;2023-11-19T14:20:54;4.88;;;1.48;;
26540;SDS011;14206;50.202;10.948;2023-11-19T14:23:21;5.75;;;1.67;;
26540;SDS011;14206;50.202;10.948;2023-11-19T14:25:48;5.43;;;1.30;;
26540;SDS011;14206;50.202;10.948;2023-11-19T14:28:16;4.97;;;1.40;;
26540;SDS011;14206;50.202;10.948;2023-11-19T14:30:42;4.53;;;1.20;;
26540;SDS011;14206;50.202;10.948;2023-11-19T14:33:11;3.20;;;1.40;;
26540;SDS011;14206;50.202;10.948;2023-11-19T14:35:38;4.78;;;1.40;;
26540;SDS011;14206;50.202;10.948;2023-11-19T14:38:05;4.40;;;1.10;;
26540;SDS011;14206;50.202;10.948;2023-11-19T14:40:36;6.28;;;1.60;;
26540;SDS011;14206;50.202;10.948;2023-11-19T14:43:05;2.55;;;1.30;;
26540;SDS011;14206;50.202;10.948;2023-11-19T14:45:32;3.38;;;1.40;;
26540;SDS011;14206;50.202;10.948;2023-11-19T14:48:10;5.57;;;1.40;;
26540;SDS011;14206;50.202;10.948;2023-11-19T14:50:37;3.25;;;1.30;;
26540;SDS011;14206;50.202;10.948;2023-11-19T14:53:04;4.13;;;1.42;;
26540;SDS011;14206;50.202;10.948;2023-11-19T14:55:31;3.42;;;1.48;;
26540;SDS011;14206;50.202;10.948;2023-11-19T14:57:58;5.47;;;1.70;;
26540;SDS011;14206;50.202;10.948;2023-11-19T15:00:35;3.55;;;1.33;;
26540;SDS011;14206;50.202;10.948;2023-11-19T15:03:02;5.90;;;1.50;;
26540;SDS011;14206;50.202;10.948;2023-11-19T15:05:29;2.90;;;1.40;;
26540;SDS011;14206;50.202;10.948;2023-11-19T15:07:56;5.00;;;1.50;;
26540;SDS011;14206;50.202;10.948;2023-11-19T15:10:23;4.75;;;1.40;;
26540;SDS011;14206;50.202;10.948;2023-11-19T15:12:51;4.80;;;1.42;;
26540;SDS011;14206;50.202;10.948;2023-11-19T15:15:20;4.45;;;1.20;;
26540;SDS011;14206;50.202;10.948;2023-11-19T15:17:50;3.50;;;1.20;;
26540;SDS011;14206;50.202;10.948;2023-11-19T15:20:18;3.13;;;1.30;;